createdAt,value
2023-03-20T00:02:50.016Z,0.30
2023-03-20T00:07:42.392Z,0.50
2023-03-20T00:12:33.980Z,0.50
2023-03-20T00:17:25.704Z,0.50
2023-03-20T00:22:17.344Z,0.50
2023-03-20T00:27:17.023Z,0.40
2023-03-20T00:32:13.190Z,0.60
2023-03-20T00:37:05.530Z,1.05
2023-03-20T00:42:06.959Z,0.47
2023-03-20T00:47:01.514Z,0.45
2023-03-20T00:51:53.191Z,0.40
2023-03-20T00:57:02.941Z,0.40
2023-03-20T01:01:54.790Z,0.38
2023-03-20T01:06:48.419Z,0.80
2023-03-20T01:11:41.703Z,0.47
2023-03-20T01:16:33.355Z,0.90
2023-03-20T01:21:25.045Z,0.40
2023-03-20T01:26:36.677Z,0.40
2023-03-20T01:31:28.366Z,0.40
2023-03-20T01:36:23.017Z,0.40
2023-03-20T01:41:17.045Z,0.40
2023-03-20T01:46:12.160Z,0.70
2023-03-20T01:51:04.119Z,0.43
2023-03-20T01:55:59.863Z,0.45
2023-03-20T02:00:51.847Z,0.40
2023-03-20T02:05:45.037Z,0.55
2023-03-20T02:10:36.987Z,0.30
2023-03-20T02:15:30.792Z,0.40
2023-03-20T02:20:22.959Z,0.30
2023-03-20T02:25:37.247Z,0.40
2023-03-20T02:31:06.341Z,0.63
2023-03-20T02:36:36.250Z,0.30
2023-03-20T02:41:40.072Z,0.77
2023-03-20T02:46:58.882Z,0.40
2023-03-20T02:56:59.802Z,0.40
2023-03-20T03:01:55.831Z,0.30
2023-03-20T03:06:50.614Z,0.30
2023-03-20T03:11:48.569Z,0.38
2023-03-20T03:16:41.242Z,0.85
2023-03-20T03:21:34.018Z,0.43
2023-03-20T03:26:29.051Z,0.20
2023-03-20T03:31:22.077Z,0.30
2023-03-20T03:36:38.403Z,0.30
2023-03-20T03:41:40.093Z,0.28
2023-03-20T03:46:44.560Z,0.20
2023-03-20T03:51:42.718Z,0.20
2023-03-20T03:56:37.201Z,0.40
2023-03-20T04:01:35.288Z,0.40
2023-03-20T04:11:21.965Z,0.38
2023-03-20T04:16:14.396Z,0.77
2023-03-20T04:21:06.875Z,0.60
2023-03-20T04:25:58.619Z,0.60
2023-03-20T04:31:01.191Z,1.02
2023-03-20T04:35:53.152Z,0.75
2023-03-20T04:40:46.723Z,1.10
2023-03-20T04:45:38.849Z,0.70
2023-03-20T04:50:30.905Z,0.68
2023-03-20T04:55:22.725Z,0.80
2023-03-20T05:00:15.458Z,0.80
2023-03-20T05:05:07.564Z,0.80
2023-03-20T05:09:59.576Z,0.70
2023-03-20T05:14:51.163Z,0.73
2023-03-20T05:19:43.290Z,0.60
2023-03-20T05:24:34.955Z,0.55
2023-03-20T05:29:26.560Z,0.82
2023-03-20T05:34:18.434Z,0.60
2023-03-20T05:39:10.716Z,0.60
2023-03-20T05:44:02.322Z,0.50
2023-03-20T05:48:54.707Z,0.43
2023-03-20T05:53:46.297Z,0.40
2023-03-20T05:58:38.045Z,0.60
2023-03-20T06:03:29.792Z,0.50
2023-03-20T06:08:21.436Z,0.50
2023-03-20T06:13:13.183Z,0.40
2023-03-20T06:18:04.873Z,0.30
2023-03-20T06:22:56.536Z,0.40
2023-03-20T06:27:49.098Z,0.30
2023-03-20T06:32:40.999Z,0.30
2023-03-20T06:37:34.257Z,0.52
2023-03-20T06:42:25.926Z,0.20
2023-03-20T06:47:17.627Z,0.30
2023-03-20T06:52:16.464Z,0.40
2023-03-20T06:57:08.104Z,0.40
2023-03-20T07:02:00.362Z,0.30
2023-03-20T07:06:52.240Z,0.35
2023-03-20T07:11:45.195Z,0.30
2023-03-20T07:16:36.781Z,0.40
2023-03-20T07:21:28.842Z,0.35
2023-03-20T07:26:20.804Z,0.38
2023-03-20T07:31:27.155Z,0.40
2023-03-20T07:36:18.775Z,0.50
2023-03-20T07:41:10.698Z,0.50
2023-03-20T07:46:04.394Z,0.40
2023-03-20T07:50:56.114Z,0.45
2023-03-20T07:55:47.728Z,0.60
2023-03-20T08:00:39.395Z,0.57
2023-03-20T08:05:31.072Z,0.50
2023-03-20T08:10:22.766Z,0.50
2023-03-20T08:15:14.557Z,0.50
2023-03-20T08:20:07.433Z,0.50
2023-03-20T08:24:59.081Z,0.70
2023-03-20T08:29:50.883Z,0.73
2023-03-20T08:34:42.583Z,0.63
2023-03-20T08:39:35.927Z,1.73
2023-03-20T08:44:27.665Z,1.00
2023-03-20T08:49:19.564Z,1.45
2023-03-20T08:54:11.315Z,0.80
2023-03-20T08:59:03.127Z,0.80
2023-03-20T09:03:54.714Z,0.70
2023-03-20T09:08:46.441Z,0.70
2023-03-20T09:13:38.254Z,0.52
2023-03-20T09:18:29.932Z,0.50
2023-03-20T09:23:21.648Z,0.50
2023-03-20T09:28:13.302Z,0.60
2023-03-20T09:33:05.197Z,0.60
2023-03-20T09:37:56.966Z,0.55
2023-03-20T09:43:19.077Z,0.50
2023-03-20T09:48:25.588Z,0.63
2023-03-20T09:53:32.998Z,0.50
2023-03-20T09:58:33.778Z,0.37
2023-03-20T10:03:33.646Z,0.35
2023-03-20T10:08:32.869Z,0.10
2023-03-20T10:13:33.640Z,0.10
2023-03-20T10:18:28.006Z,0.00
2023-03-20T10:23:42.295Z,0.00
2023-03-20T10:28:45.052Z,0.00
2023-03-20T10:34:18.037Z,0.00
2023-03-20T10:39:18.564Z,0.00
2023-03-20T10:44:46.419Z,0.00
2023-03-20T10:49:46.521Z,0.00
2023-03-20T10:54:44.336Z,0.00
2023-03-20T10:59:42.909Z,0.00
2023-03-20T11:04:34.767Z,0.00
2023-03-20T11:09:32.898Z,0.00
2023-03-20T11:14:27.477Z,0.00
2023-03-20T11:19:24.023Z,0.00
2023-03-20T11:24:26.030Z,0.00
2023-03-20T11:29:31.445Z,0.00
2023-03-20T11:34:26.704Z,0.00
2023-03-20T11:39:32.677Z,0.00
2023-03-20T11:44:30.103Z,0.00
2023-03-20T11:49:28.294Z,0.00
2023-03-20T11:54:24.007Z,0.00
2023-03-20T11:59:19.876Z,0.10
2023-03-20T12:04:18.724Z,0.00
2023-03-20T12:09:19.217Z,0.00
2023-03-20T12:14:52.819Z,0.00
2023-03-20T12:19:46.356Z,0.00
2023-03-20T12:24:44.698Z,0.00
2023-03-20T12:29:59.986Z,0.03
2023-03-20T12:34:59.777Z,0.00
2023-03-20T12:39:56.493Z,0.00
2023-03-20T12:45:14.790Z,0.00
2023-03-20T12:55:29.770Z,0.08
2023-03-20T13:00:33.386Z,0.00
2023-03-20T13:05:46.148Z,0.00
2023-03-20T13:10:41.735Z,0.00
2023-03-20T13:16:02.270Z,0.00
2023-03-20T13:21:00.271Z,0.00
2023-03-20T13:26:15.112Z,0.00
2023-03-20T13:31:34.052Z,0.00
2023-03-20T13:36:31.366Z,0.00
2023-03-20T13:41:25.348Z,0.10
2023-03-20T13:46:22.653Z,0.10
2023-03-20T13:51:38.326Z,0.10
2023-03-20T13:56:43.578Z,0.10
2023-03-20T14:01:47.409Z,0.10
2023-03-20T14:06:52.112Z,0.10
2023-03-20T14:11:43.837Z,0.10
2023-03-20T14:16:35.583Z,0.10
2023-03-20T14:21:28.973Z,0.10
2023-03-20T14:26:23.078Z,0.03
2023-03-20T14:31:25.586Z,0.10
2023-03-20T14:36:29.246Z,0.10
2023-03-20T14:41:49.396Z,0.10
2023-03-20T14:46:48.810Z,0.10
2023-03-20T14:51:47.187Z,0.20
2023-03-20T14:56:39.126Z,0.10
2023-03-20T15:01:40.094Z,0.10
2023-03-20T15:06:33.549Z,0.10
2023-03-20T15:11:26.305Z,0.20
2023-03-20T15:16:27.212Z,0.10
2023-03-20T15:21:21.828Z,0.10
2023-03-20T15:26:19.873Z,0.20
2023-03-20T15:31:27.706Z,0.30
2023-03-20T15:36:22.717Z,0.13
2023-03-20T15:41:24.675Z,0.20
2023-03-20T15:46:18.734Z,0.10
2023-03-20T15:51:11.520Z,0.10
2023-03-20T15:56:17.704Z,0.10
2023-03-20T16:01:17.507Z,0.17
2023-03-20T16:06:12.251Z,0.00
2023-03-20T16:11:15.471Z,0.10
2023-03-20T16:16:11.973Z,0.10
2023-03-20T16:21:07.416Z,0.10
2023-03-20T16:26:00.088Z,0.00
2023-03-20T16:30:51.922Z,0.08
2023-03-20T16:35:47.567Z,0.10
2023-03-20T16:40:39.515Z,0.20
2023-03-20T16:45:34.361Z,0.10
2023-03-20T16:50:36.703Z,0.10
2023-03-20T16:55:31.764Z,0.13
2023-03-20T17:00:27.465Z,0.20
2023-03-20T17:05:21.024Z,0.30
2023-03-20T17:10:21.705Z,0.35
2023-03-20T17:15:19.524Z,0.20
2023-03-20T17:20:30.988Z,0.30
2023-03-20T17:25:22.958Z,0.30
2023-03-20T17:30:19.640Z,0.40
2023-03-20T17:35:12.152Z,0.50
2023-03-20T17:40:04.822Z,0.57
2023-03-20T17:44:58.016Z,0.80
2023-03-20T17:49:52.210Z,0.70
2023-03-20T17:54:44.673Z,0.82
2023-03-20T17:59:36.408Z,0.65
2023-03-20T18:04:28.051Z,0.55
2023-03-20T18:09:20.825Z,0.40
2023-03-20T18:14:12.711Z,0.40
2023-03-20T18:19:04.443Z,0.22
2023-03-20T18:23:56.206Z,0.20
2023-03-20T18:28:49.441Z,0.10
2023-03-20T18:33:41.049Z,0.10
2023-03-20T18:38:32.640Z,0.17
2023-03-20T18:43:24.285Z,0.30
2023-03-20T18:48:16.629Z,0.50
2023-03-20T18:53:09.965Z,0.20
2023-03-20T18:58:06.329Z,0.40
2023-03-20T19:02:58.145Z,0.30
2023-03-20T19:07:49.924Z,0.40
2023-03-20T19:12:41.556Z,0.35
2023-03-20T19:17:33.171Z,0.50
2023-03-20T19:22:29.557Z,0.70
2023-03-20T19:27:21.589Z,0.50
2023-03-20T19:32:13.210Z,0.45
2023-03-20T19:37:04.806Z,0.45
2023-03-20T19:42:12.042Z,0.43
2023-03-20T19:47:09.683Z,0.60
2023-03-20T19:52:04.213Z,1.85
2023-03-20T19:56:55.822Z,3.72
2023-03-20T20:01:47.666Z,4.18
2023-03-20T20:06:39.931Z,5.13
2023-03-20T20:11:33.061Z,5.82
2023-03-20T20:16:24.733Z,5.18
2023-03-20T20:22:10.113Z,4.68
2023-03-20T20:26:31.064Z,5.25
2023-03-20T20:31:31.086Z,5.60
2023-03-20T20:41:34.773Z,4.72
2023-03-20T20:46:26.590Z,5.22
2023-03-20T20:51:19.158Z,4.10
2023-03-20T20:56:10.958Z,4.18
2023-03-20T21:01:03.524Z,4.25
2023-03-20T21:05:56.060Z,2.67
2023-03-20T21:10:47.987Z,2.60
2023-03-20T21:15:40.043Z,2.35
2023-03-20T21:20:33.094Z,2.80
2023-03-20T21:25:38.740Z,2.47
2023-03-20T21:30:31.583Z,2.53
2023-03-20T21:35:23.339Z,3.00
2023-03-20T21:40:15.014Z,2.85
2023-03-20T22:37:46.651Z,0.40
2023-03-20T22:42:49.593Z,0.63
2023-03-20T22:47:31.906Z,0.88
2023-03-20T22:52:34.883Z,0.80
2023-03-20T22:57:42.371Z,0.70
2023-03-20T23:02:39.162Z,0.50
2023-03-20T23:07:30.755Z,0.55
2023-03-20T23:12:22.395Z,0.52
2023-03-20T23:17:14.255Z,1.00
2023-03-20T23:22:06.100Z,1.08
2023-03-20T23:26:57.808Z,1.67
2023-03-20T23:31:49.542Z,1.85
2023-03-20T23:36:42.488Z,2.50
2023-03-20T23:42:04.585Z,2.65
2023-03-20T23:46:48.172Z,2.45
2023-03-20T23:51:40.001Z,2.58
2023-03-20T23:56:31.641Z,2.95
